createdAt,value
2019-03-09T00:00:51.321Z,81.17
2019-03-09T00:01:51.304Z,81.45
2019-03-09T00:02:51.286Z,81.26
2019-03-09T00:03:51.264Z,81.45
2019-03-09T00:04:51.245Z,81.26
2019-03-09T00:05:51.226Z,81.36
2019-03-09T00:06:51.206Z,81.26
2019-03-09T00:07:51.189Z,81.17
2019-03-09T00:08:51.173Z,81.26
2019-03-09T00:09:51.149Z,81.17
2019-03-09T00:10:51.141Z,80.98
2019-03-09T00:11:51.119Z,80.69
2019-03-09T00:12:51.093Z,80.41
2019-03-09T00:13:51.074Z,80.26
2019-03-09T00:14:51.116Z,80.45
2019-03-09T00:15:51.052Z,79.94
2019-03-09T00:16:51.029Z,80.03
2019-03-09T00:17:51.006Z,79.94
2019-03-09T00:18:50.982Z,79.74
2019-03-09T00:19:50.965Z,79.84
2019-03-09T00:20:50.946Z,79.94
2019-03-09T00:21:50.928Z,80.13
2019-03-09T00:22:50.915Z,80.32
2019-03-09T00:23:50.891Z,80.03
2019-03-09T00:24:50.870Z,80.41
2019-03-09T00:25:50.869Z,80.41
2019-03-09T00:26:50.839Z,80.03
2019-03-09T00:27:50.820Z,79.84
2019-03-09T00:28:50.800Z,80.22
2019-03-09T00:29:50.790Z,79.94
2019-03-09T00:30:50.773Z,79.94
2019-03-09T00:31:50.742Z,80.13
2019-03-09T00:32:50.725Z,80.03
2019-03-09T00:33:50.728Z,80.03
2019-03-09T00:34:50.706Z,79.97
2019-03-09T00:35:50.696Z,80.32
2019-03-09T00:36:50.659Z,80.41
2019-03-09T00:37:50.631Z,80.41
2019-03-09T00:38:50.620Z,80.55
2019-03-09T00:39:50.593Z,80.35
2019-03-09T00:40:50.592Z,80.74
2019-03-09T00:41:50.564Z,80.26
2019-03-09T00:42:50.555Z,80.64
2019-03-09T00:43:50.517Z,80.45
2019-03-09T00:44:50.506Z,80.45
2019-03-09T00:45:50.480Z,80.45
2019-03-09T00:46:50.464Z,80.35
2019-03-09T00:47:50.465Z,80.26
2019-03-09T00:48:50.423Z,80.07
2019-03-09T00:49:50.415Z,80.16
2019-03-09T00:50:50.394Z,80.16
2019-03-09T00:51:50.377Z,79.88
2019-03-09T00:52:50.357Z,79.97
2019-03-09T00:53:50.371Z,80.26
2019-03-09T00:54:50.325Z,80.35
2019-03-09T00:55:50.299Z,79.97
2019-03-09T00:56:50.307Z,80.07
2019-03-09T00:57:50.302Z,80.16
2019-03-09T00:58:50.309Z,79.97
2019-03-09T00:59:50.275Z,79.97
2019-03-09T01:00:50.289Z,79.79
2019-03-09T01:01:50.196Z,79.69
2019-03-09T01:02:51.202Z,80.07
2019-03-09T01:03:50.209Z,80.16
2019-03-09T01:04:50.139Z,80.26
2019-03-09T01:05:50.113Z,80.26
2019-03-09T01:06:50.128Z,80.45
2019-03-09T01:07:50.078Z,80.45
2019-03-09T01:08:50.900Z,80.26
2019-03-09T01:09:50.095Z,80.35
2019-03-09T01:10:50.151Z,80.64
2019-03-09T01:11:50.044Z,80.45
2019-03-09T01:12:50.075Z,80.45
2019-03-09T01:13:50.010Z,80.35
2019-03-09T01:14:49.971Z,80.35
2019-03-09T01:15:50.016Z,80.26
2019-03-09T01:16:58.126Z,80.45
2019-03-09T01:19:19.473Z,80.26
2019-03-09T01:20:16.775Z,79.97
2019-03-09T01:22:36.293Z,80.35
2019-03-09T01:26:47.281Z,79.50
2019-03-09T01:27:47.254Z,79.31
2019-03-09T01:29:40.131Z,79.31
2019-03-09T01:30:40.074Z,79.69
2019-03-09T01:32:32.928Z,79.22
2019-03-09T01:33:32.905Z,79.41
2019-03-09T01:35:25.792Z,79.60
2019-03-09T01:36:26.312Z,79.41
2019-03-09T01:37:25.731Z,79.60
2019-03-09T01:38:25.857Z,79.31
2019-03-09T01:39:25.724Z,79.41
2019-03-09T01:40:25.663Z,79.41
2019-03-09T01:41:25.645Z,79.41
2019-03-09T01:42:25.635Z,80.26
2019-03-09T01:43:25.607Z,80.07
2019-03-09T01:44:25.592Z,80.26
2019-03-09T01:45:25.572Z,80.45
2019-03-09T01:46:25.558Z,80.55
2019-03-09T01:47:25.531Z,80.55
2019-03-09T01:48:25.522Z,80.16
2019-03-09T01:49:25.495Z,80.07
2019-03-09T01:50:25.476Z,79.97
2019-03-09T01:51:25.460Z,80.16
2019-03-09T01:52:25.437Z,80.35
2019-03-09T01:53:25.422Z,80.55
2019-03-09T01:54:25.407Z,80.45
2019-03-09T01:55:25.385Z,80.35
2019-03-09T01:56:25.367Z,80.83
2019-03-09T01:57:25.359Z,80.83
2019-03-09T01:58:25.332Z,80.74
2019-03-09T01:59:25.312Z,80.93
2019-03-09T02:00:25.294Z,81.21
2019-03-09T02:01:25.292Z,81.40
2019-03-09T02:02:25.256Z,81.40
2019-03-09T02:03:25.237Z,81.30
2019-03-09T02:04:25.296Z,81.59
2019-03-09T02:05:25.205Z,81.78
2019-03-09T02:06:25.183Z,81.68
2019-03-09T02:07:25.166Z,81.87
2019-03-09T02:08:25.145Z,81.78
2019-03-09T02:09:25.124Z,82.26
2019-03-09T02:10:25.116Z,82.26
2019-03-09T02:11:25.088Z,81.78
2019-03-09T02:12:25.075Z,81.78
2019-03-09T02:13:25.052Z,81.40
2019-03-09T02:14:25.036Z,81.87
2019-03-09T02:15:25.017Z,81.87
2019-03-09T02:16:24.996Z,81.30
2019-03-09T02:17:24.975Z,80.74
2019-03-09T02:18:24.963Z,80.83
2019-03-09T02:19:24.946Z,79.97
2019-03-09T02:20:24.934Z,79.97
2019-03-09T02:21:24.921Z,80.26
2019-03-09T02:22:24.882Z,79.97
2019-03-09T02:23:24.866Z,79.88
2019-03-09T02:24:24.846Z,80.07
2019-03-09T02:25:24.830Z,80.16
2019-03-09T02:26:24.806Z,80.26
2019-03-09T02:27:24.789Z,80.74
2019-03-09T02:28:24.778Z,80.55
2019-03-09T02:29:24.752Z,79.22
2019-03-09T02:30:24.741Z,79.69
2019-03-09T02:31:24.717Z,79.50
2019-03-09T02:32:24.701Z,79.54
2019-03-09T02:33:24.676Z,79.41
2019-03-09T02:34:24.659Z,79.54
2019-03-09T02:35:24.645Z,79.25
2019-03-09T02:36:24.624Z,79.44
2019-03-09T02:37:24.615Z,79.25
2019-03-09T02:38:24.587Z,79.25
2019-03-09T02:39:24.562Z,79.44
2019-03-09T02:40:24.551Z,79.35
2019-03-09T02:41:24.525Z,79.06
2019-03-09T02:42:24.514Z,79.35
2019-03-09T02:43:24.496Z,78.21
2019-03-09T02:44:24.476Z,78.11
2019-03-09T02:45:24.451Z,77.36
2019-03-09T02:46:24.438Z,77.83
2019-03-09T02:47:24.421Z,77.64
2019-03-09T02:48:24.404Z,77.07
2019-03-09T02:49:24.396Z,77.36
2019-03-09T02:50:24.386Z,77.26
2019-03-09T02:51:24.351Z,77.45
2019-03-09T02:52:24.343Z,77.17
2019-03-09T02:53:24.310Z,77.26
2019-03-09T02:54:24.288Z,77.26
2019-03-09T02:55:24.276Z,77.83
2019-03-09T02:56:24.253Z,77.64
2019-03-09T02:57:24.242Z,78.02
2019-03-09T02:58:24.220Z,78.21
2019-03-09T02:59:24.195Z,78.11
2019-03-09T03:00:24.185Z,78.50
2019-03-09T03:01:24.167Z,79.16
2019-03-09T03:02:24.146Z,78.88
2019-03-09T03:03:24.129Z,79.16
2019-03-09T03:04:24.103Z,78.30
2019-03-09T03:05:24.110Z,78.21
2019-03-09T03:06:24.075Z,79.16
2019-03-09T03:07:24.058Z,79.16
2019-03-09T03:08:24.038Z,79.50
2019-03-09T03:09:24.018Z,79.41
2019-03-09T03:10:24.000Z,79.50
2019-03-09T03:11:23.980Z,79.79
2019-03-09T03:12:23.960Z,79.97
2019-03-09T03:13:23.939Z,80.26
2019-03-09T03:14:23.920Z,80.55
2019-03-09T03:15:23.906Z,80.74
2019-03-09T03:16:23.890Z,81.12
2019-03-09T03:17:23.884Z,81.30
2019-03-09T03:18:23.854Z,81.59
2019-03-09T03:19:23.859Z,81.87
2019-03-09T03:20:23.814Z,81.59
2019-03-09T03:21:23.822Z,82.26
2019-03-09T03:22:23.789Z,82.16
2019-03-09T03:23:23.758Z,81.59
2019-03-09T03:24:23.740Z,81.97
2019-03-09T03:25:23.713Z,82.26
2019-03-09T03:26:23.702Z,82.26
2019-03-09T03:27:23.698Z,82.64
2019-03-09T03:28:23.664Z,82.73
2019-03-09T03:29:23.675Z,82.82
2019-03-09T03:30:23.650Z,82.82
2019-03-09T03:31:23.607Z,82.82
2019-03-09T03:32:23.589Z,83.11
2019-03-09T03:33:23.605Z,83.49
2019-03-09T03:34:23.550Z,83.54
2019-03-09T03:35:23.534Z,83.59
2019-03-09T03:36:23.514Z,83.73
2019-03-09T03:37:23.498Z,83.92
2019-03-09T03:38:23.476Z,84.01
2019-03-09T03:39:23.458Z,84.21
2019-03-09T03:40:23.444Z,84.59
2019-03-09T03:41:23.422Z,84.78
2019-03-09T03:42:23.400Z,84.59
2019-03-09T03:43:23.384Z,84.59
2019-03-09T03:44:23.364Z,84.87
2019-03-09T03:45:23.344Z,84.97
2019-03-09T03:46:23.318Z,85.16
2019-03-09T03:47:23.303Z,85.25
2019-03-09T03:48:23.314Z,85.25
2019-03-09T03:49:23.290Z,85.53
2019-03-09T03:50:23.289Z,84.97
2019-03-09T03:51:23.249Z,85.16
2019-03-09T03:52:23.219Z,85.16
2019-03-09T03:53:23.198Z,85.35
2019-03-09T03:54:23.194Z,85.25
2019-03-09T03:55:23.153Z,85.72
2019-03-09T03:56:23.154Z,85.35
2019-03-09T03:57:23.137Z,85.53
2019-03-09T03:58:23.122Z,85.82
2019-03-09T03:59:23.094Z,85.72
2019-03-09T04:00:23.072Z,86.30
2019-03-09T04:01:23.061Z,86.11
2019-03-09T04:02:23.062Z,86.01
2019-03-09T04:03:22.999Z,86.30
2019-03-09T04:04:22.987Z,86.20
2019-03-09T04:05:22.966Z,86.30
2019-03-09T04:06:22.950Z,86.20
2019-03-09T04:07:22.930Z,86.68
2019-03-09T04:08:22.926Z,86.49
2019-03-09T04:09:22.884Z,86.68
2019-03-09T04:10:22.880Z,87.05
2019-03-09T04:11:22.849Z,86.96
2019-03-09T04:12:22.866Z,87.15
2019-03-09T04:13:22.850Z,87.82
2019-03-09T04:14:31.962Z,87.72
2019-03-09T04:15:22.810Z,87.82
2019-03-09T04:16:22.803Z,88.48
2019-03-09T04:17:24.357Z,88.20
2019-03-09T04:18:24.374Z,88.20
2019-03-09T04:19:22.863Z,88.48
2019-03-09T04:20:24.470Z,88.57
2019-03-09T04:21:22.831Z,89.05
2019-03-09T04:22:22.799Z,89.05
2019-03-09T04:23:22.680Z,89.24
2019-03-09T04:24:22.687Z,89.14
2019-03-09T04:25:24.423Z,89.53
2019-03-09T04:26:26.693Z,89.53
2019-03-09T04:27:30.714Z,89.43
2019-03-09T04:29:16.445Z,89.67
2019-03-09T04:30:16.425Z,90.09
2019-03-09T04:32:10.265Z,89.90
2019-03-09T04:33:10.230Z,90.33
2019-03-09T04:35:03.087Z,90.47
2019-03-09T04:36:03.070Z,90.76
2019-03-09T04:37:03.048Z,90.33
2019-03-09T04:38:03.032Z,90.62
2019-03-09T04:39:03.013Z,90.52
2019-03-09T04:40:02.989Z,90.24
2019-03-09T04:41:02.974Z,91.38
2019-03-09T04:42:02.952Z,91.00
2019-03-09T04:43:02.940Z,91.14
2019-03-09T04:44:02.934Z,91.04
2019-03-09T04:45:02.895Z,91.24
2019-03-09T04:46:02.876Z,91.42
2019-03-09T04:47:02.868Z,91.24
2019-03-09T04:48:02.840Z,91.14
2019-03-09T04:49:02.821Z,90.85
2019-03-09T04:50:02.802Z,90.95
2019-03-09T04:51:02.780Z,91.33
2019-03-09T04:52:02.763Z,90.57
2019-03-09T04:53:02.744Z,90.66
2019-03-09T04:54:02.728Z,90.57
2019-03-09T04:55:02.706Z,90.76
2019-03-09T04:56:02.694Z,90.66
2019-03-09T04:57:02.672Z,90.85
2019-03-09T04:58:02.646Z,90.47
2019-03-09T04:59:02.629Z,90.85
2019-03-09T05:00:02.615Z,90.47
2019-03-09T05:01:02.591Z,90.66
2019-03-09T05:02:02.588Z,90.85
2019-03-09T05:03:02.558Z,90.76
2019-03-09T05:04:02.545Z,90.19
2019-03-09T05:05:02.515Z,90.00
2019-03-09T05:06:02.523Z,90.19
2019-03-09T05:07:02.479Z,90.47
2019-03-09T05:08:02.458Z,90.19
2019-03-09T05:09:02.439Z,90.19
2019-03-09T05:10:02.450Z,90.09
2019-03-09T05:11:02.403Z,90.38
2019-03-09T05:12:02.406Z,90.09
2019-03-09T05:13:02.364Z,90.00
2019-03-09T05:14:02.354Z,90.28
2019-03-09T05:15:02.344Z,90.33
2019-03-09T05:16:02.318Z,90.57
2019-03-09T05:17:02.288Z,90.00
2019-03-09T05:18:02.296Z,90.14
2019-03-09T05:19:02.248Z,89.90
2019-03-09T05:20:02.230Z,90.19
2019-03-09T05:21:02.212Z,90.28
2019-03-09T05:22:02.240Z,89.72
2019-03-09T05:23:03.141Z,90.19
2019-03-09T05:24:02.167Z,89.90
2019-03-09T05:25:02.145Z,89.62
2019-03-09T05:26:02.122Z,90.09
2019-03-09T05:27:02.139Z,89.76
2019-03-09T05:28:02.087Z,89.57
2019-03-09T05:29:02.068Z,90.05
2019-03-09T05:30:02.048Z,89.95
2019-03-09T05:31:02.021Z,89.95
2019-03-09T05:32:02.005Z,89.57
2019-03-09T05:33:01.988Z,89.86
2019-03-09T05:34:01.971Z,89.67
2019-03-09T05:35:01.948Z,90.14
2019-03-09T05:36:01.953Z,89.57
2019-03-09T05:37:01.922Z,89.57
2019-03-09T05:38:01.899Z,89.76
2019-03-09T05:39:01.879Z,89.86
2019-03-09T05:40:01.868Z,89.76
2019-03-09T05:41:01.839Z,89.86
2019-03-09T05:42:01.833Z,89.95
2019-03-09T05:43:01.816Z,89.67
2019-03-09T05:44:01.811Z,89.57
2019-03-09T05:45:01.771Z,89.76
2019-03-09T05:46:01.746Z,89.76
2019-03-09T05:47:01.723Z,89.76
2019-03-09T05:48:01.723Z,89.76
2019-03-09T05:49:01.690Z,89.67
2019-03-09T05:50:01.664Z,89.67
2019-03-09T05:51:01.649Z,89.95
2019-03-09T05:52:01.631Z,89.95
2019-03-09T05:53:01.608Z,89.95
2019-03-09T05:54:01.595Z,89.95
2019-03-09T05:55:01.579Z,90.14
2019-03-09T05:56:01.559Z,89.76
2019-03-09T05:57:01.537Z,89.86
2019-03-09T05:58:01.528Z,89.76
2019-03-09T05:59:01.508Z,89.67
2019-03-09T06:00:01.484Z,89.95
2019-03-09T06:01:01.464Z,90.14
2019-03-09T06:02:01.446Z,89.86
2019-03-09T06:03:01.422Z,89.95
2019-03-09T06:04:01.421Z,89.76
2019-03-09T06:05:01.389Z,89.67
2019-03-09T06:06:01.387Z,89.57
2019-03-09T06:07:01.346Z,89.86
2019-03-09T06:08:01.332Z,89.67
2019-03-09T06:09:01.313Z,89.76
2019-03-09T06:10:01.295Z,89.76
2019-03-09T06:11:01.278Z,89.57
2019-03-09T06:12:01.257Z,89.67
2019-03-09T06:13:01.244Z,90.05
2019-03-09T06:14:01.220Z,89.67
2019-03-09T06:15:01.196Z,89.67
2019-03-09T06:16:01.185Z,89.76
2019-03-09T06:17:01.165Z,90.14
2019-03-09T06:18:01.167Z,90.33
2019-03-09T06:19:01.132Z,89.95
2019-03-09T06:20:01.108Z,90.14
2019-03-09T06:21:01.094Z,90.14
2019-03-09T06:22:01.084Z,90.23
2019-03-09T06:23:01.066Z,90.42
2019-03-09T06:24:01.035Z,90.33
2019-03-09T06:25:01.015Z,90.23
2019-03-09T06:26:00.997Z,90.52
2019-03-09T06:27:00.979Z,90.90
2019-03-09T06:28:00.962Z,90.61
2019-03-09T06:29:00.937Z,90.71
2019-03-09T06:30:00.923Z,90.80
2019-03-09T06:31:00.906Z,90.42
2019-03-09T06:32:00.882Z,90.99
2019-03-09T06:33:00.866Z,90.99
2019-03-09T06:34:00.848Z,91.09
2019-03-09T06:35:00.829Z,90.61
2019-03-09T06:36:00.808Z,90.42
2019-03-09T06:37:00.793Z,91.09
2019-03-09T06:38:00.772Z,91.56
2019-03-09T06:39:00.753Z,90.61
2019-03-09T06:40:00.737Z,90.61
2019-03-09T06:41:03.216Z,90.61
2019-03-09T06:42:00.699Z,90.61
2019-03-09T06:43:00.682Z,90.52
2019-03-09T06:44:00.662Z,90.42
2019-03-09T06:45:00.643Z,91.19
2019-03-09T06:46:00.626Z,91.38
2019-03-09T06:47:00.610Z,91.47
2019-03-09T06:48:00.586Z,91.28
2019-03-09T06:49:00.564Z,91.19
2019-03-09T06:50:00.549Z,91.19
2019-03-09T06:51:00.525Z,91.28
2019-03-09T06:52:00.511Z,91.19
2019-03-09T06:53:00.627Z,90.90
2019-03-09T06:55:47.265Z,91.28
2019-03-09T06:57:00.295Z,91.38
2019-03-09T06:59:05.616Z,91.09
2019-03-09T07:00:05.564Z,91.56
2019-03-09T07:01:58.431Z,91.47
2019-03-09T07:02:58.409Z,91.66
2019-03-09T07:04:51.286Z,91.09
2019-03-09T07:05:51.255Z,91.56
2019-03-09T07:06:51.241Z,91.56
2019-03-09T07:07:51.225Z,91.85
2019-03-09T07:08:51.180Z,91.85
2019-03-09T07:09:51.180Z,91.85
2019-03-09T07:10:51.161Z,91.38
2019-03-09T07:11:51.135Z,91.85
2019-03-09T07:12:51.094Z,91.66
2019-03-09T07:13:53.102Z,91.66
2019-03-09T07:14:51.106Z,91.56
2019-03-09T07:15:51.106Z,91.66
2019-03-09T07:16:51.108Z,92.13
2019-03-09T07:17:51.073Z,92.13
2019-03-09T07:18:50.995Z,91.94
2019-03-09T07:19:50.993Z,92.23
2019-03-09T07:20:50.987Z,91.75
2019-03-09T07:21:50.975Z,92.51
2019-03-09T07:22:50.956Z,92.51
2019-03-09T07:23:50.920Z,91.94
2019-03-09T07:24:50.927Z,92.51
2019-03-09T07:25:50.882Z,92.71
2019-03-09T07:26:50.870Z,92.61
2019-03-09T07:27:50.852Z,92.71
2019-03-09T07:28:50.811Z,92.99
2019-03-09T07:29:50.810Z,92.99
2019-03-09T07:30:50.784Z,92.90
2019-03-09T07:31:50.823Z,92.80
2019-03-09T07:32:50.732Z,92.51
2019-03-09T07:33:50.757Z,92.75
2019-03-09T07:34:50.692Z,92.71
2019-03-09T07:35:50.718Z,92.71
2019-03-09T07:36:50.655Z,92.66
2019-03-09T07:37:50.647Z,92.75
2019-03-09T07:38:50.657Z,92.75
2019-03-09T07:39:50.626Z,92.85
2019-03-09T07:40:50.576Z,92.61
2019-03-09T07:41:50.592Z,92.94
2019-03-09T07:42:50.542Z,92.94
2019-03-09T07:43:50.552Z,93.32
2019-03-09T07:44:50.558Z,93.41
2019-03-09T07:45:50.487Z,93.51
2019-03-09T07:46:50.505Z,93.32
2019-03-09T07:47:50.465Z,93.79
2019-03-09T07:48:50.445Z,93.60
2019-03-09T07:49:50.414Z,93.60
2019-03-09T07:50:50.395Z,93.70
2019-03-09T07:51:50.376Z,93.51
2019-03-09T07:52:50.356Z,93.32
2019-03-09T07:53:50.341Z,93.32
2019-03-09T07:54:52.038Z,93.23
2019-03-09T07:55:50.305Z,93.32
2019-03-09T07:56:50.288Z,93.32
2019-03-09T07:57:50.265Z,93.23
2019-03-09T07:58:50.247Z,93.51
2019-03-09T07:59:50.229Z,93.51
2019-03-09T08:00:50.212Z,93.41
2019-03-09T08:01:50.194Z,93.51
2019-03-09T08:02:50.172Z,93.23
2019-03-09T08:03:50.155Z,92.94
2019-03-09T08:04:50.143Z,93.60
2019-03-09T08:05:50.127Z,93.51
2019-03-09T08:06:50.096Z,93.51
2019-03-09T08:07:50.086Z,94.18
2019-03-09T08:08:50.065Z,93.79
2019-03-09T08:09:50.041Z,93.79
2019-03-09T08:10:50.025Z,93.60
2019-03-09T08:11:50.005Z,93.79
2019-03-09T08:12:49.990Z,94.08
2019-03-09T08:13:49.967Z,93.99
2019-03-09T08:14:49.960Z,93.79
2019-03-09T08:15:49.930Z,93.79
2019-03-09T08:16:49.918Z,93.70
2019-03-09T08:17:49.897Z,93.79
2019-03-09T08:18:49.877Z,94.08
2019-03-09T08:19:49.864Z,93.79
2019-03-09T08:20:49.845Z,93.79
2019-03-09T08:21:49.828Z,93.99
2019-03-09T08:22:49.822Z,93.89
2019-03-09T08:23:49.793Z,93.75
2019-03-09T08:24:49.769Z,93.84
2019-03-09T08:25:49.754Z,93.94
2019-03-09T08:26:49.749Z,93.75
2019-03-09T08:27:49.728Z,93.65
2019-03-09T08:28:49.702Z,93.94
2019-03-09T08:29:49.682Z,93.46
2019-03-09T08:30:49.664Z,93.46
2019-03-09T08:31:49.657Z,93.46
2019-03-09T08:32:49.627Z,93.37
2019-03-09T08:33:49.627Z,93.55
2019-03-09T08:34:49.597Z,93.08
2019-03-09T08:35:49.574Z,93.08
2019-03-09T08:36:49.552Z,93.18
2019-03-09T08:37:49.555Z,92.80
2019-03-09T08:38:49.532Z,92.61
2019-03-09T08:39:49.506Z,93.32
2019-03-09T08:40:49.485Z,92.61
2019-03-09T08:41:49.528Z,92.41
2019-03-09T08:42:49.453Z,92.18
2019-03-09T08:43:49.491Z,91.89
2019-03-09T08:44:49.418Z,91.89
2019-03-09T08:45:49.395Z,92.18
2019-03-09T08:46:49.389Z,92.27
2019-03-09T08:47:52.486Z,92.18
2019-03-09T08:48:49.342Z,92.46
2019-03-09T08:49:49.326Z,91.70
2019-03-09T08:50:49.316Z,91.22
2019-03-09T08:51:49.341Z,91.32
2019-03-09T08:52:49.293Z,91.46
2019-03-09T08:53:49.288Z,91.03
2019-03-09T08:54:49.238Z,91.08
2019-03-09T08:55:49.228Z,91.61
2019-03-09T08:56:49.259Z,91.46
2019-03-09T08:57:49.213Z,91.37
2019-03-09T08:58:49.174Z,90.89
2019-03-09T09:01:30.596Z,90.22
2019-03-09T09:02:37.661Z,89.84
2019-03-09T09:08:32.901Z,89.75
2019-03-09T09:11:14.048Z,89.65
2019-03-09T09:12:14.013Z,89.75
2019-03-09T09:14:07.869Z,89.32
2019-03-09T09:15:07.846Z,89.23
2019-03-09T09:17:00.719Z,89.65
2019-03-09T09:18:10.813Z,89.32
2019-03-09T09:19:00.662Z,89.32
2019-03-09T09:20:11.307Z,89.84
2019-03-09T09:21:55.538Z,90.22
2019-03-09T09:22:55.505Z,89.99
2019-03-09T09:24:48.414Z,89.99
2019-03-09T09:25:48.388Z,89.89
2019-03-09T09:27:42.274Z,90.18
2019-03-09T09:28:42.241Z,89.61
2019-03-09T09:29:50.371Z,89.70
2019-03-09T09:31:35.389Z,90.28
2019-03-09T09:32:35.335Z,89.99
2019-03-09T09:33:43.505Z,90.18
2019-03-09T09:35:29.229Z,89.99
2019-03-09T09:36:29.203Z,89.99
2019-03-09T09:38:26.052Z,90.32
2019-03-09T09:39:25.992Z,90.28
2019-03-09T09:40:25.977Z,90.56
2019-03-09T09:41:25.953Z,90.03
2019-03-09T09:42:25.940Z,89.70
2019-03-09T09:43:25.928Z,89.80
2019-03-09T09:44:25.906Z,89.32
2019-03-09T09:45:25.890Z,89.80
2019-03-09T09:46:26.002Z,89.80
2019-03-09T09:47:25.883Z,89.61
2019-03-09T09:48:25.864Z,90.28
2019-03-09T09:49:25.890Z,90.18
2019-03-09T09:50:25.823Z,89.84
2019-03-09T09:51:25.823Z,89.80
2019-03-09T09:52:25.764Z,90.18
2019-03-09T09:53:25.758Z,89.99
2019-03-09T09:54:25.755Z,89.89
2019-03-09T09:55:25.735Z,89.70
2019-03-09T09:56:25.724Z,90.08
2019-03-09T09:57:25.716Z,90.28
2019-03-09T09:58:25.684Z,90.37
2019-03-09T09:59:25.648Z,90.56
2019-03-09T10:00:25.658Z,90.08
2019-03-09T10:01:25.615Z,89.42
2019-03-09T10:02:25.617Z,89.61
2019-03-09T10:03:25.596Z,89.94
2019-03-09T10:04:25.606Z,89.75
2019-03-09T10:05:25.819Z,89.70
2019-03-09T10:06:25.563Z,89.99
2019-03-09T10:07:25.542Z,90.56
2019-03-09T10:08:25.509Z,89.99
2019-03-09T10:09:25.499Z,89.99
2019-03-09T10:10:25.522Z,90.08
2019-03-09T10:11:25.456Z,90.18
2019-03-09T10:12:25.480Z,90.56
2019-03-09T10:13:25.461Z,90.18
2019-03-09T10:14:25.453Z,90.28
2019-03-09T10:15:25.390Z,89.99
2019-03-09T10:16:25.421Z,90.28
2019-03-09T10:17:25.364Z,90.47
2019-03-09T10:18:25.342Z,90.28
2019-03-09T10:19:25.328Z,90.18
2019-03-09T10:20:25.338Z,90.18
2019-03-09T10:21:25.280Z,90.47
2019-03-09T10:22:25.283Z,90.08
2019-03-09T10:23:25.241Z,89.80
2019-03-09T10:24:25.282Z,89.89
2019-03-09T10:25:25.230Z,89.84
2019-03-09T10:26:26.728Z,90.51
2019-03-09T10:27:25.171Z,90.03
2019-03-09T10:28:25.156Z,90.42
2019-03-09T10:29:25.149Z,90.03
2019-03-09T10:30:25.142Z,89.94
2019-03-09T10:31:25.121Z,89.75
2019-03-09T10:32:25.092Z,89.94
2019-03-09T10:33:25.080Z,89.94
2019-03-09T10:34:25.054Z,90.22
2019-03-09T10:35:25.061Z,90.32
2019-03-09T10:36:25.024Z,89.75
2019-03-09T10:37:25.012Z,89.75
2019-03-09T10:38:25.002Z,89.65
2019-03-09T10:39:25.004Z,89.75
2019-03-09T10:40:24.954Z,89.75
2019-03-09T10:41:24.999Z,89.27
2019-03-09T10:42:24.923Z,89.37
2019-03-09T10:43:24.908Z,89.41
2019-03-09T10:44:24.866Z,89.22
2019-03-09T10:45:24.862Z,89.32
2019-03-09T10:46:24.882Z,88.56
2019-03-09T10:47:24.842Z,88.75
2019-03-09T10:48:24.829Z,88.27
2019-03-09T10:49:24.803Z,88.46
2019-03-09T10:50:26.007Z,87.79
2019-03-09T10:51:24.764Z,87.60
2019-03-09T10:52:24.753Z,87.41
2019-03-09T10:53:24.746Z,87.60
2019-03-09T10:54:24.719Z,87.89
2019-03-09T10:55:24.707Z,87.41
2019-03-09T10:56:24.692Z,87.41
2019-03-09T10:57:24.682Z,86.84
2019-03-09T10:58:24.671Z,86.84
2019-03-09T10:59:24.632Z,87.13
2019-03-09T11:00:24.670Z,87.03
2019-03-09T11:01:24.588Z,86.94
2019-03-09T11:02:24.582Z,86.84
2019-03-09T11:03:24.583Z,87.03
2019-03-09T11:04:27.959Z,86.18
2019-03-09T11:05:24.548Z,86.18
2019-03-09T11:06:24.502Z,85.80
2019-03-09T11:07:24.724Z,86.46
2019-03-09T11:08:24.558Z,86.46
2019-03-09T11:09:24.466Z,85.32
2019-03-09T11:10:24.444Z,85.22
2019-03-09T11:11:24.440Z,85.22
2019-03-09T11:12:24.557Z,85.32
2019-03-09T11:13:25.444Z,85.51
2019-03-09T11:14:24.646Z,85.89
2019-03-09T11:15:24.790Z,85.60
2019-03-09T11:16:24.425Z,85.89
2019-03-09T11:17:24.475Z,85.80
2019-03-09T11:18:24.583Z,85.99
2019-03-09T11:19:24.275Z,85.70
2019-03-09T11:20:24.305Z,85.41
2019-03-09T11:21:24.248Z,85.89
2019-03-09T11:22:24.248Z,85.80
2019-03-09T11:23:24.260Z,85.32
2019-03-09T11:24:24.217Z,85.70
2019-03-09T11:25:24.187Z,85.27
2019-03-09T11:26:24.175Z,85.70
2019-03-09T11:27:24.170Z,85.74
2019-03-09T11:28:24.140Z,85.27
2019-03-09T11:29:24.124Z,84.88
2019-03-09T11:30:24.112Z,84.41
2019-03-09T11:31:24.072Z,84.88
2019-03-09T11:32:24.065Z,84.88
2019-03-09T11:33:24.062Z,84.84
2019-03-09T11:34:24.045Z,85.03
2019-03-09T11:35:24.028Z,85.13
2019-03-09T11:36:24.015Z,85.27
2019-03-09T11:37:24.000Z,85.36
2019-03-09T11:38:23.959Z,85.46
2019-03-09T11:39:23.990Z,85.08
2019-03-09T11:40:23.939Z,84.79
2019-03-09T11:41:23.931Z,85.36
2019-03-09T11:42:23.948Z,85.55
2019-03-09T11:43:23.892Z,85.89
2019-03-09T11:44:23.891Z,85.13
2019-03-09T11:45:24.618Z,85.22
2019-03-09T11:46:23.890Z,84.65
2019-03-09T11:47:23.827Z,84.94
2019-03-09T11:48:23.812Z,84.46
2019-03-09T11:49:23.789Z,84.36
2019-03-09T11:50:23.788Z,84.65
2019-03-09T11:51:23.748Z,84.94
2019-03-09T11:52:23.742Z,84.84
2019-03-09T11:53:23.750Z,84.75
2019-03-09T11:54:23.703Z,84.84
2019-03-09T11:55:23.683Z,84.46
2019-03-09T11:56:23.667Z,84.17
2019-03-09T11:57:23.680Z,83.70
2019-03-09T11:58:23.685Z,84.17
2019-03-09T11:59:23.655Z,83.80
2019-03-09T12:00:23.619Z,83.61
2019-03-09T12:01:23.639Z,84.08
2019-03-09T12:02:23.580Z,84.36
2019-03-09T12:03:23.572Z,84.27
2019-03-09T12:04:23.539Z,84.17
2019-03-09T12:05:23.522Z,83.13
2019-03-09T12:06:23.509Z,83.32
2019-03-09T12:07:23.501Z,84.17
2019-03-09T12:08:23.476Z,84.08
2019-03-09T12:09:23.447Z,83.98
2019-03-09T12:10:23.454Z,84.08
2019-03-09T12:11:23.481Z,84.08
2019-03-09T12:12:23.399Z,83.98
2019-03-09T12:13:23.379Z,84.08
2019-03-09T12:14:23.373Z,84.27
2019-03-09T12:15:23.360Z,83.89
2019-03-09T12:16:23.333Z,84.46
2019-03-09T12:17:23.319Z,85.13
2019-03-09T12:18:23.328Z,84.94
2019-03-09T12:19:23.285Z,84.84
2019-03-09T12:20:23.324Z,84.84
2019-03-09T12:21:23.254Z,85.32
2019-03-09T12:22:23.227Z,85.80
2019-03-09T12:23:23.228Z,85.80
2019-03-09T12:24:23.276Z,85.70
2019-03-09T12:25:23.194Z,85.41
2019-03-09T12:26:23.171Z,85.41
2019-03-09T12:27:23.175Z,85.99
2019-03-09T12:28:23.152Z,85.51
2019-03-09T12:29:23.127Z,85.80
2019-03-09T12:30:23.118Z,85.41
2019-03-09T12:31:23.114Z,85.89
2019-03-09T12:32:23.067Z,85.32
2019-03-09T12:33:23.113Z,85.60
2019-03-09T12:34:23.033Z,85.70
2019-03-09T12:35:23.022Z,85.51
2019-03-09T12:36:23.026Z,85.70
2019-03-09T12:37:23.003Z,85.70
2019-03-09T12:38:22.996Z,85.70
2019-03-09T12:39:22.952Z,85.66
2019-03-09T12:40:22.940Z,85.70
2019-03-09T12:41:22.948Z,85.70
2019-03-09T12:42:22.885Z,85.75
2019-03-09T12:43:22.890Z,85.75
2019-03-09T12:44:22.883Z,85.32
2019-03-09T12:45:22.856Z,85.85
2019-03-09T12:46:22.830Z,85.32
2019-03-09T12:47:22.810Z,85.41
2019-03-09T12:48:22.813Z,84.99
2019-03-09T12:49:22.777Z,85.18
2019-03-09T12:50:22.778Z,85.28
2019-03-09T12:51:22.746Z,85.75
2019-03-09T12:52:22.764Z,85.85
2019-03-09T12:53:22.729Z,85.75
2019-03-09T12:54:22.705Z,85.66
2019-03-09T12:55:22.686Z,86.13
2019-03-09T12:56:22.677Z,86.22
2019-03-09T12:57:22.670Z,86.70
2019-03-09T12:58:22.666Z,86.61
2019-03-09T12:59:22.610Z,87.08
2019-03-09T13:00:22.601Z,86.99
2019-03-09T13:01:22.572Z,87.46
2019-03-09T13:02:22.578Z,87.65
2019-03-09T13:03:22.539Z,87.37
2019-03-09T13:04:22.519Z,87.27
2019-03-09T13:05:22.535Z,87.94
2019-03-09T13:06:22.521Z,87.75
2019-03-09T13:07:22.482Z,88.04
2019-03-09T13:08:23.528Z,87.75
2019-03-09T13:09:22.512Z,87.85
2019-03-09T13:10:22.426Z,88.42
2019-03-09T13:11:22.419Z,87.94
2019-03-09T13:12:22.387Z,87.98
2019-03-09T13:13:22.405Z,87.85
2019-03-09T13:14:22.362Z,88.51
2019-03-09T13:15:22.357Z,88.46
2019-03-09T13:16:22.349Z,88.32
2019-03-09T13:17:22.322Z,88.46
2019-03-09T13:18:22.338Z,88.08
2019-03-09T13:19:22.337Z,87.79
2019-03-09T13:20:22.287Z,88.18
2019-03-09T13:21:22.233Z,87.60
2019-03-09T13:22:22.237Z,87.32
2019-03-09T13:23:22.291Z,87.70
2019-03-09T13:24:22.174Z,87.41